sensor_id;sensor_type;location;lat;lon;timestamp;pressure;altitude;pressure_sealevel;temperature;humidity
56330;BME280;42236;48.058;10.632;2023-05-23T00:01:35;94519.88;;;15.09;86.22
56330;BME280;42236;48.058;10.632;2023-05-23T00:04:22;94519.88;;;15.09;83.95
56330;BME280;42236;48.058;10.632;2023-05-23T00:07:11;94520.63;;;15.06;84.04
56330;BME280;42236;48.058;10.632;2023-05-23T00:09:57;94516.66;;;15.00;84.30
56330;BME280;42236;48.058;10.632;2023-05-23T00:12:43;94525.16;;;14.94;84.52
56330;BME280;42236;48.058;10.632;2023-05-23T00:15:32;94517.34;;;14.89;85.04
56330;BME280;42236;48.058;10.632;2023-05-23T00:18:25;94521.91;;;14.82;85.12
56330;BME280;42236;48.058;10.632;2023-05-23T00:21:18;94524.56;;;14.78;86.00
56330;BME280;42236;48.058;10.632;2023-05-23T00:24:03;94525.28;;;14.71;86.19
56330;BME280;42236;48.058;10.632;2023-05-23T00:26:49;94524.03;;;14.65;86.58
56330;BME280;42236;48.058;10.632;2023-05-23T00:29:35;94527.44;;;14.59;86.37
56330;BME280;42236;48.058;10.632;2023-05-23T00:32:21;94526.88;;;14.49;87.15
56330;BME280;42236;48.058;10.632;2023-05-23T00:35:07;94524.56;;;14.48;86.68
56330;BME280;42236;48.058;10.632;2023-05-23T00:37:53;94523.03;;;14.50;86.26
56330;BME280;42236;48.058;10.632;2023-05-23T00:40:39;94519.16;;;14.51;85.65
56330;BME280;42236;48.058;10.632;2023-05-23T00:43:28;94520.69;;;14.49;85.54
56330;BME280;42236;48.058;10.632;2023-05-23T00:46:15;94522.63;;;14.48;85.35
56330;BME280;42236;48.058;10.632;2023-05-23T00:49:19;94526.78;;;14.42;87.08
56330;BME280;42236;48.058;10.632;2023-05-23T00:52:05;94522.88;;;14.40;85.45
56330;BME280;42236;48.058;10.632;2023-05-23T00:57:46;94530.34;;;14.46;85.70
56330;BME280;42236;48.058;10.632;2023-05-23T01:04:05;94526.88;;;14.49;85.38
56330;BME280;42236;48.058;10.632;2023-05-23T01:06:53;94528.47;;;14.50;85.29
56330;BME280;42236;48.058;10.632;2023-05-23T01:09:39;94516.91;;;14.54;85.41
56330;BME280;42236;48.058;10.632;2023-05-23T01:12:28;94522.75;;;14.56;85.46
56330;BME280;42236;48.058;10.632;2023-05-23T01:15:37;94521.59;;;14.57;86.59
56330;BME280;42236;48.058;10.632;2023-05-23T01:21:59;94518.47;;;14.55;85.42
56330;BME280;42236;48.058;10.632;2023-05-23T01:30:47;94512.59;;;14.52;86.82
56330;BME280;42236;48.058;10.632;2023-05-23T01:33:37;94517.63;;;14.50;85.65
56330;BME280;42236;48.058;10.632;2023-05-23T01:36:24;94513.69;;;14.48;85.71
56330;BME280;42236;48.058;10.632;2023-05-23T01:39:10;94521.38;;;14.42;85.75
56330;BME280;42236;48.058;10.632;2023-05-23T01:41:56;94516.25;;;14.37;85.76
56330;BME280;42236;48.058;10.632;2023-05-23T01:44:44;94529.03;;;14.33;85.75
56330;BME280;42236;48.058;10.632;2023-05-23T01:47:30;94520.34;;;14.24;85.83
56330;BME280;42236;48.058;10.632;2023-05-23T01:50:17;94524.09;;;14.16;86.03
56330;BME280;42236;48.058;10.632;2023-05-23T01:53:03;94522.03;;;14.05;86.39
56330;BME280;42236;48.058;10.632;2023-05-23T01:55:50;94524.19;;;13.96;86.34
56330;BME280;42236;48.058;10.632;2023-05-23T01:58:55;94535.38;;;13.91;88.30
56330;BME280;42236;48.058;10.632;2023-05-23T02:01:41;94536.13;;;13.92;87.02
56330;BME280;42236;48.058;10.632;2023-05-23T02:04:30;94545.09;;;13.92;86.93
56330;BME280;42236;48.058;10.632;2023-05-23T02:07:38;94541.28;;;13.97;88.20
56330;BME280;42236;48.058;10.632;2023-05-23T02:10:24;94540.91;;;13.98;86.65
56330;BME280;42236;48.058;10.632;2023-05-23T02:13:10;94546.31;;;13.98;86.90
56330;BME280;42236;48.058;10.632;2023-05-23T02:15:56;94548.69;;;14.00;87.28
56330;BME280;42236;48.058;10.632;2023-05-23T02:19:10;94551.03;;;14.01;88.59
56330;BME280;42236;48.058;10.632;2023-05-23T02:21:56;94549.88;;;14.02;87.13
56330;BME280;42236;48.058;10.632;2023-05-23T02:24:41;94548.72;;;14.03;86.75
56330;BME280;42236;48.058;10.632;2023-05-23T02:27:35;94554.56;;;14.05;87.61
56330;BME280;42236;48.058;10.632;2023-05-23T02:30:21;94559.19;;;14.01;86.87
56330;BME280;42236;48.058;10.632;2023-05-23T02:33:07;94568.03;;;13.98;86.63
56330;BME280;42236;48.058;10.632;2023-05-23T02:35:53;94571.47;;;13.95;86.85
56330;BME280;42236;48.058;10.632;2023-05-23T02:38:39;94567.13;;;13.91;87.53
56330;BME280;42236;48.058;10.632;2023-05-23T02:41:25;94578.28;;;13.85;87.51
56330;BME280;42236;48.058;10.632;2023-05-23T02:44:11;94581.31;;;13.80;87.85
56330;BME280;42236;48.058;10.632;2023-05-23T02:46:57;94587.03;;;13.75;88.62
56330;BME280;42236;48.058;10.632;2023-05-23T02:49:42;94587.69;;;13.69;89.40
56330;BME280;42236;48.058;10.632;2023-05-23T02:52:28;94586.00;;;13.60;90.06
56330;BME280;42236;48.058;10.632;2023-05-23T02:55:14;94587.78;;;13.53;91.34
56330;BME280;42236;48.058;10.632;2023-05-23T02:58:00;94594.22;;;13.44;91.31
56330;BME280;42236;48.058;10.632;2023-05-23T03:00:45;94587.94;;;13.40;91.38
56330;BME280;42236;48.058;10.632;2023-05-23T03:03:31;94592.53;;;13.36;91.78
56330;BME280;42236;48.058;10.632;2023-05-23T03:06:17;94588.63;;;13.34;91.81
56330;BME280;42236;48.058;10.632;2023-05-23T03:09:02;94594.03;;;13.34;91.27
56330;BME280;42236;48.058;10.632;2023-05-23T03:11:48;94581.97;;;13.31;91.94
56330;BME280;42236;48.058;10.632;2023-05-23T03:14:34;94579.63;;;13.30;92.07
56330;BME280;42236;48.058;10.632;2023-05-23T03:17:19;94582.69;;;13.28;92.03
56330;BME280;42236;48.058;10.632;2023-05-23T03:20:05;94585.31;;;13.24;92.51
56330;BME280;42236;48.058;10.632;2023-05-23T03:22:54;94583.69;;;13.20;92.86
56330;BME280;42236;48.058;10.632;2023-05-23T03:25:39;94582.06;;;13.15;92.06
56330;BME280;42236;48.058;10.632;2023-05-23T03:28:25;94575.44;;;13.13;92.24
56330;BME280;42236;48.058;10.632;2023-05-23T03:31:11;94569.63;;;13.14;91.85
56330;BME280;42236;48.058;10.632;2023-05-23T03:33:56;94577.06;;;13.17;91.06
56330;BME280;42236;48.058;10.632;2023-05-23T03:36:42;94573.16;;;13.15;91.87
56330;BME280;42236;48.058;10.632;2023-05-23T03:39:28;94574.28;;;13.14;91.95
56330;BME280;42236;48.058;10.632;2023-05-23T03:42:14;94581.31;;;13.18;91.25
56330;BME280;42236;48.058;10.632;2023-05-23T03:45:00;94584.91;;;13.22;91.01
56330;BME280;42236;48.058;10.632;2023-05-23T03:47:45;94581.97;;;13.31;90.69
56330;BME280;42236;48.058;10.632;2023-05-23T03:50:31;94585.91;;;13.34;90.58
56330;BME280;42236;48.058;10.632;2023-05-23T03:53:17;94590.66;;;13.40;90.60
56330;BME280;42236;48.058;10.632;2023-05-23T03:56:02;94587.31;;;13.47;90.27
56330;BME280;42236;48.058;10.632;2023-05-23T03:58:48;94587.38;;;13.51;90.25
56330;BME280;42236;48.058;10.632;2023-05-23T04:01:34;94590.50;;;13.53;90.39
56330;BME280;42236;48.058;10.632;2023-05-23T04:04:20;94591.78;;;13.59;90.50
56330;BME280;42236;48.058;10.632;2023-05-23T04:07:12;94590.69;;;13.63;91.11
56330;BME280;42236;48.058;10.632;2023-05-23T04:09:59;94585.31;;;13.67;90.96
56330;BME280;42236;48.058;10.632;2023-05-23T04:12:45;94592.81;;;13.74;90.75
56330;BME280;42236;48.058;10.632;2023-05-23T04:15:32;94593.22;;;13.76;91.12
56330;BME280;42236;48.058;10.632;2023-05-23T04:18:18;94592.50;;;13.79;92.04
56330;BME280;42236;48.058;10.632;2023-05-23T04:21:04;94596.09;;;13.86;92.18
56330;BME280;42236;48.058;10.632;2023-05-23T04:23:50;94602.06;;;13.96;92.12
56330;BME280;42236;48.058;10.632;2023-05-23T04:26:36;94607.63;;;14.03;92.02
56330;BME280;42236;48.058;10.632;2023-05-23T04:29:21;94598.09;;;14.13;91.90
56330;BME280;42236;48.058;10.632;2023-05-23T04:32:09;94596.34;;;14.24;91.80
56330;BME280;42236;48.058;10.632;2023-05-23T04:34:55;94603.84;;;14.34;91.98
56330;BME280;42236;48.058;10.632;2023-05-23T04:37:42;94613.34;;;14.47;91.79
56330;BME280;42236;48.058;10.632;2023-05-23T04:40:29;94607.25;;;14.54;92.13
56330;BME280;42236;48.058;10.632;2023-05-23T04:43:15;94607.34;;;14.61;91.99
56330;BME280;42236;48.058;10.632;2023-05-23T04:46:02;94612.13;;;14.68;91.88
56330;BME280;42236;48.058;10.632;2023-05-23T04:48:48;94611.03;;;14.76;92.01
56330;BME280;42236;48.058;10.632;2023-05-23T04:51:35;94609.22;;;14.84;92.44
56330;BME280;42236;48.058;10.632;2023-05-23T04:54:20;94609.34;;;14.91;91.77
56330;BME280;42236;48.058;10.632;2023-05-23T04:57:06;94620.66;;;14.97;92.23
56330;BME280;42236;48.058;10.632;2023-05-23T04:59:52;94616.81;;;15.01;91.99
56330;BME280;42236;48.058;10.632;2023-05-23T05:02:37;94616.84;;;15.05;92.48
56330;BME280;42236;48.058;10.632;2023-05-23T05:05:23;94616.53;;;15.10;92.47
56330;BME280;42236;48.058;10.632;2023-05-23T05:08:09;94611.19;;;15.17;92.38
56330;BME280;42236;48.058;10.632;2023-05-23T05:10:56;94614.03;;;15.28;91.89
56330;BME280;42236;48.058;10.632;2023-05-23T05:13:41;94612.97;;;15.36;92.17
56330;BME280;42236;48.058;10.632;2023-05-23T05:16:27;94605.66;;;15.44;91.97
56330;BME280;42236;48.058;10.632;2023-05-23T05:19:13;94606.56;;;15.55;91.96
56330;BME280;42236;48.058;10.632;2023-05-23T05:21:59;94612.41;;;15.57;92.44
56330;BME280;42236;48.058;10.632;2023-05-23T05:24:52;94622.13;;;15.58;92.54
56330;BME280;42236;48.058;10.632;2023-05-23T05:27:38;94620.16;;;15.55;92.66
56330;BME280;42236;48.058;10.632;2023-05-23T05:30:23;94619.03;;;15.56;92.00
56330;BME280;42236;48.058;10.632;2023-05-23T05:33:09;94620.56;;;15.57;92.61
56330;BME280;42236;48.058;10.632;2023-05-23T05:35:55;94624.91;;;15.65;93.28
56330;BME280;42236;48.058;10.632;2023-05-23T05:38:40;94624.31;;;15.79;92.75
56330;BME280;42236;48.058;10.632;2023-05-23T05:41:26;94620.19;;;15.92;92.44
56330;BME280;42236;48.058;10.632;2023-05-23T05:44:12;94631.91;;;16.00;92.48
56330;BME280;42236;48.058;10.632;2023-05-23T05:46:58;94628.06;;;16.05;92.14
56330;BME280;42236;48.058;10.632;2023-05-23T05:49:43;94626.59;;;16.14;92.60
56330;BME280;42236;48.058;10.632;2023-05-23T05:52:29;94632.22;;;16.39;92.69
56330;BME280;42236;48.058;10.632;2023-05-23T05:55:15;94632.88;;;16.77;91.89
56330;BME280;42236;48.058;10.632;2023-05-23T05:58:01;94640.75;;;16.90;91.24
56330;BME280;42236;48.058;10.632;2023-05-23T06:00:47;94640.72;;;16.86;91.06
56330;BME280;42236;48.058;10.632;2023-05-23T06:03:33;94640.66;;;16.75;91.29
56330;BME280;42236;48.058;10.632;2023-05-23T06:06:19;94636.75;;;16.73;91.42
56330;BME280;42236;48.058;10.632;2023-05-23T06:09:04;94644.16;;;16.76;91.77
56330;BME280;42236;48.058;10.632;2023-05-23T06:11:59;94648.94;;;16.93;91.51
56330;BME280;42236;48.058;10.632;2023-05-23T06:14:47;94648.22;;;17.00;91.43
56330;BME280;42236;48.058;10.632;2023-05-23T06:17:33;94647.41;;;16.92;91.81
56330;BME280;42236;48.058;10.632;2023-05-23T06:20:19;94645.75;;;16.80;92.24
56330;BME280;42236;48.058;10.632;2023-05-23T06:23:04;94651.91;;;16.74;92.56
56330;BME280;42236;48.058;10.632;2023-05-23T06:25:50;94656.56;;;16.70;93.06
56330;BME280;42236;48.058;10.632;2023-05-23T06:28:39;94655.72;;;16.62;92.71
56330;BME280;42236;48.058;10.632;2023-05-23T06:31:25;94658.72;;;16.46;93.11
56330;BME280;42236;48.058;10.632;2023-05-23T06:34:15;94650.84;;;16.34;94.35
56330;BME280;42236;48.058;10.632;2023-05-23T06:37:01;94660.16;;;16.33;93.91
56330;BME280;42236;48.058;10.632;2023-05-23T06:39:47;94659.50;;;16.47;94.09
56330;BME280;42236;48.058;10.632;2023-05-23T06:42:32;94656.06;;;16.53;93.53
56330;BME280;42236;48.058;10.632;2023-05-23T06:45:18;94661.91;;;16.55;93.63
56330;BME280;42236;48.058;10.632;2023-05-23T06:48:04;94666.97;;;16.57;93.98
56330;BME280;42236;48.058;10.632;2023-05-23T06:50:50;94664.97;;;16.50;93.99
56330;BME280;42236;48.058;10.632;2023-05-23T06:53:36;94665.78;;;16.54;93.76
56330;BME280;42236;48.058;10.632;2023-05-23T06:56:22;94675.13;;;16.57;93.76
56330;BME280;42236;48.058;10.632;2023-05-23T06:59:23;94677.50;;;16.58;93.88
56330;BME280;42236;48.058;10.632;2023-05-23T07:02:09;94677.97;;;16.68;93.92
56330;BME280;42236;48.058;10.632;2023-05-23T07:04:55;94675.28;;;16.75;93.75
56330;BME280;42236;48.058;10.632;2023-05-23T07:07:41;94679.09;;;16.67;94.16
56330;BME280;42236;48.058;10.632;2023-05-23T07:10:26;94687.28;;;16.67;93.71
56330;BME280;42236;48.058;10.632;2023-05-23T07:13:12;94685.31;;;16.67;93.88
56330;BME280;42236;48.058;10.632;2023-05-23T07:15:58;94695.34;;;16.52;94.18
56330;BME280;42236;48.058;10.632;2023-05-23T07:18:44;94696.44;;;16.44;94.56
56330;BME280;42236;48.058;10.632;2023-05-23T07:21:30;94690.25;;;16.47;94.51
56330;BME280;42236;48.058;10.632;2023-05-23T07:24:16;94697.72;;;16.57;94.07
56330;BME280;42236;48.058;10.632;2023-05-23T07:27:02;94689.94;;;16.59;93.84
56330;BME280;42236;48.058;10.632;2023-05-23T07:29:47;94689.22;;;16.62;93.32
56330;BME280;42236;48.058;10.632;2023-05-23T07:32:33;94689.63;;;16.68;92.89
56330;BME280;42236;48.058;10.632;2023-05-23T07:35:19;94689.03;;;16.89;92.35
56330;BME280;42236;48.058;10.632;2023-05-23T07:38:10;94691.09;;;17.06;91.53
56330;BME280;42236;48.058;10.632;2023-05-23T07:40:56;94691.56;;;17.23;90.60
56330;BME280;42236;48.058;10.632;2023-05-23T07:43:42;94686.91;;;17.27;90.50
56330;BME280;42236;48.058;10.632;2023-05-23T07:46:28;94697.09;;;17.37;90.22
56330;BME280;42236;48.058;10.632;2023-05-23T07:49:13;94695.84;;;17.27;89.59
56330;BME280;42236;48.058;10.632;2023-05-23T07:51:59;94693.13;;;17.24;89.15
56330;BME280;42236;48.058;10.632;2023-05-23T07:54:45;94684.19;;;17.31;89.06
56330;BME280;42236;48.058;10.632;2023-05-23T07:57:31;94681.91;;;17.40;89.23
56330;BME280;42236;48.058;10.632;2023-05-23T08:00:17;94689.28;;;17.39;88.44
56330;BME280;42236;48.058;10.632;2023-05-23T08:03:03;94687.41;;;17.51;88.56
56330;BME280;42236;48.058;10.632;2023-05-23T08:05:49;94694.09;;;17.64;88.45
56330;BME280;42236;48.058;10.632;2023-05-23T08:08:37;94690.59;;;17.67;87.51
56330;BME280;42236;48.058;10.632;2023-05-23T08:11:23;94685.22;;;17.88;87.13
56330;BME280;42236;48.058;10.632;2023-05-23T08:14:09;94687.59;;;18.01;86.91
56330;BME280;42236;48.058;10.632;2023-05-23T08:16:55;94690.75;;;18.10;86.22
56330;BME280;42236;48.058;10.632;2023-05-23T08:19:41;94686.84;;;18.15;84.71
56330;BME280;42236;48.058;10.632;2023-05-23T08:22:30;94688.38;;;18.12;84.88
56330;BME280;42236;48.058;10.632;2023-05-23T08:25:16;94690.75;;;18.17;85.31
56330;BME280;42236;48.058;10.632;2023-05-23T08:28:01;94697.75;;;18.18;85.41
56330;BME280;42236;48.058;10.632;2023-05-23T08:30:47;94687.63;;;18.19;85.25
56330;BME280;42236;48.058;10.632;2023-05-23T08:33:33;94689.56;;;18.07;85.18
56330;BME280;42236;48.058;10.632;2023-05-23T08:36:19;94691.47;;;18.00;85.35
56330;BME280;42236;48.058;10.632;2023-05-23T08:39:05;94686.84;;;18.07;85.30
56330;BME280;42236;48.058;10.632;2023-05-23T08:41:51;94690.75;;;18.10;85.01
56330;BME280;42236;48.058;10.632;2023-05-23T08:47:59;94703.25;;;18.40;84.52
56330;BME280;42236;48.058;10.632;2023-05-23T08:51:06;94700.13;;;18.38;84.19
56330;BME280;42236;48.058;10.632;2023-05-23T08:54:10;94702.50;;;18.64;83.45
56330;BME280;42236;48.058;10.632;2023-05-23T08:57:15;94702.91;;;18.88;83.03
56330;BME280;42236;48.058;10.632;2023-05-23T09:04:22;94709.53;;;18.44;83.79
56330;BME280;42236;48.058;10.632;2023-05-23T09:07:08;94708.69;;;18.18;84.14
56330;BME280;42236;48.058;10.632;2023-05-23T09:13:53;94713.97;;;17.68;86.39
56330;BME280;42236;48.058;10.632;2023-05-23T09:23:57;94711.41;;;18.11;85.96
56330;BME280;42236;48.058;10.632;2023-05-23T09:30:13;94718.91;;;18.82;84.00
56330;BME280;42236;48.058;10.632;2023-05-23T09:47:59;94703.22;;;19.22;79.41
56330;BME280;42236;48.058;10.632;2023-05-23T09:54:26;94703.66;;;19.10;79.25
56330;BME280;42236;48.058;10.632;2023-05-23T10:00:59;94700.94;;;18.56;80.78
56330;BME280;42236;48.058;10.632;2023-05-23T10:07:30;94699.78;;;18.79;80.10
56330;BME280;42236;48.058;10.632;2023-05-23T10:14:13;94685.72;;;19.02;79.08
56330;BME280;42236;48.058;10.632;2023-05-23T10:21:18;94692.25;;;19.36;77.89
56330;BME280;42236;48.058;10.632;2023-05-23T10:28:06;94689.22;;;19.02;79.01
56330;BME280;42236;48.058;10.632;2023-05-23T10:31:10;94683.75;;;18.73;81.10
56330;BME280;42236;48.058;10.632;2023-05-23T10:41:57;94693.81;;;17.83;86.28
56330;BME280;42236;48.058;10.632;2023-05-23T10:55:55;94702.84;;;18.16;83.69
56330;BME280;42236;48.058;10.632;2023-05-23T10:59:18;94699.34;;;18.33;83.25
56330;BME280;42236;48.058;10.632;2023-05-23T11:02:26;94715.38;;;18.57;82.79
56330;BME280;42236;48.058;10.632;2023-05-23T11:05:51;94714.22;;;18.68;83.04
56330;BME280;42236;48.058;10.632;2023-05-23T11:09:06;94713.44;;;18.79;81.72
56330;BME280;42236;48.058;10.632;2023-05-23T11:12:16;94714.25;;;18.83;80.65
56330;BME280;42236;48.058;10.632;2023-05-23T11:22:52;94699.41;;;18.80;80.18
56330;BME280;42236;48.058;10.632;2023-05-23T11:33:34;94697.81;;;19.11;78.87
56330;BME280;42236;48.058;10.632;2023-05-23T11:47:13;94678.69;;;18.97;80.67
56330;BME280;42236;48.058;10.632;2023-05-23T11:50:41;94666.94;;;19.00;82.22
56330;BME280;42236;48.058;10.632;2023-05-23T11:53:53;94667.31;;;19.16;81.99
56330;BME280;42236;48.058;10.632;2023-05-23T12:00:26;94665.25;;;19.53;82.89
56330;BME280;42236;48.058;10.632;2023-05-23T12:03:23;94665.56;;;19.73;81.17
56330;BME280;42236;48.058;10.632;2023-05-23T12:10:10;94662.06;;;19.72;82.19
56330;BME280;42236;48.058;10.632;2023-05-23T12:20:39;94662.56;;;20.19;82.00
56330;BME280;42236;48.058;10.632;2023-05-23T12:23:40;94669.13;;;20.33;81.18
56330;BME280;42236;48.058;10.632;2023-05-23T12:26:55;94666.81;;;20.24;74.28
56330;BME280;42236;48.058;10.632;2023-05-23T12:37:12;94683.84;;;20.53;74.59
56330;BME280;42236;48.058;10.632;2023-05-23T12:40:29;94681.72;;;20.75;73.34
56330;BME280;42236;48.058;10.632;2023-05-23T12:50:54;94674.63;;;20.29;69.25
56330;BME280;42236;48.058;10.632;2023-05-23T12:53:57;94677.44;;;20.15;69.16
56330;BME280;42236;48.058;10.632;2023-05-23T13:11:54;94668.31;;;20.88;64.19
56330;BME280;42236;48.058;10.632;2023-05-23T13:15:14;94660.63;;;20.72;61.38
56330;BME280;42236;48.058;10.632;2023-05-23T13:18:43;94654.84;;;20.59;62.38
56330;BME280;42236;48.058;10.632;2023-05-23T13:21:49;94651.63;;;20.68;64.40
56330;BME280;42236;48.058;10.632;2023-05-23T13:28:34;94650.47;;;20.69;62.77
56330;BME280;42236;48.058;10.632;2023-05-23T13:32:08;94649.31;;;20.63;62.45
56330;BME280;42236;48.058;10.632;2023-05-23T13:39:22;94640.06;;;20.91;62.20
56330;BME280;42236;48.058;10.632;2023-05-23T13:42:11;94635.34;;;21.29;62.46
56330;BME280;42236;48.058;10.632;2023-05-23T13:45:18;94638.09;;;21.29;58.63
56330;BME280;42236;48.058;10.632;2023-05-23T13:52:12;94648.75;;;21.89;57.16
56330;BME280;42236;48.058;10.632;2023-05-23T13:55:26;94648.81;;;22.12;57.71
56330;BME280;42236;48.058;10.632;2023-05-23T13:58:40;94650.75;;;22.15;56.81
56330;BME280;42236;48.058;10.632;2023-05-23T14:01:27;94637.06;;;22.12;58.09
56330;BME280;42236;48.058;10.632;2023-05-23T14:04:17;94636.50;;;21.97;57.94
56330;BME280;42236;48.058;10.632;2023-05-23T14:07:23;94629.69;;;21.78;57.87
56330;BME280;42236;48.058;10.632;2023-05-23T14:10:09;94641.22;;;21.66;57.31
56330;BME280;42236;48.058;10.632;2023-05-23T14:12:56;94645.28;;;21.54;57.25
56330;BME280;42236;48.058;10.632;2023-05-23T14:15:42;94644.53;;;21.54;56.62
56330;BME280;42236;48.058;10.632;2023-05-23T14:18:48;94641.72;;;21.57;54.61
56330;BME280;42236;48.058;10.632;2023-05-23T14:32:34;94656.41;;;21.43;56.34
56330;BME280;42236;48.058;10.632;2023-05-23T14:36:00;94653.28;;;21.38;57.73
56330;BME280;42236;48.058;10.632;2023-05-23T14:42:53;94651.75;;;21.37;57.16
56330;BME280;42236;48.058;10.632;2023-05-23T14:46:44;94652.22;;;21.28;55.89
56330;BME280;42236;48.058;10.632;2023-05-23T14:49:10;94656.25;;;21.16;55.84
56330;BME280;42236;48.058;10.632;2023-05-23T14:51:56;94654.13;;;21.35;55.63
56330;BME280;42236;48.058;10.632;2023-05-23T14:54:41;94654.84;;;21.42;55.53
56330;BME280;42236;48.058;10.632;2023-05-23T14:57:30;94651.25;;;21.45;55.65
56330;BME280;42236;48.058;10.632;2023-05-23T15:00:16;94664.13;;;21.52;56.57
56330;BME280;42236;48.058;10.632;2023-05-23T15:03:03;94667.41;;;21.40;56.68
56330;BME280;42236;48.058;10.632;2023-05-23T15:05:49;94665.09;;;21.35;57.29
56330;BME280;42236;48.058;10.632;2023-05-23T15:08:34;94660.31;;;21.46;56.64
56330;BME280;42236;48.058;10.632;2023-05-23T15:11:21;94671.22;;;21.49;56.32
56330;BME280;42236;48.058;10.632;2023-05-23T15:14:07;94662.34;;;21.69;56.14
56330;BME280;42236;48.058;10.632;2023-05-23T15:16:53;94657.00;;;21.58;55.43
56330;BME280;42236;48.058;10.632;2023-05-23T15:19:51;94652.53;;;21.37;53.33
56330;BME280;42236;48.058;10.632;2023-05-23T15:22:36;94653.91;;;21.56;54.77
56330;BME280;42236;48.058;10.632;2023-05-23T15:25:22;94653.63;;;21.78;55.20
56330;BME280;42236;48.058;10.632;2023-05-23T15:28:10;94648.75;;;21.89;54.34
56330;BME280;42236;48.058;10.632;2023-05-23T15:31:04;94653.09;;;21.86;54.33
56330;BME280;42236;48.058;10.632;2023-05-23T15:33:50;94647.53;;;21.93;55.05
56330;BME280;42236;48.058;10.632;2023-05-23T15:36:36;94652.06;;;21.77;55.09
56330;BME280;42236;48.058;10.632;2023-05-23T15:39:22;94657.47;;;21.84;55.30
56330;BME280;42236;48.058;10.632;2023-05-23T15:42:07;94647.09;;;21.68;54.92
56330;BME280;42236;48.058;10.632;2023-05-23T15:44:53;94659.91;;;21.78;54.93
56330;BME280;42236;48.058;10.632;2023-05-23T15:47:39;94655.19;;;21.79;54.62
56330;BME280;42236;48.058;10.632;2023-05-23T15:50:25;94655.03;;;21.59;55.16
56330;BME280;42236;48.058;10.632;2023-05-23T15:53:11;94659.03;;;21.54;54.80
56330;BME280;42236;48.058;10.632;2023-05-23T15:56:15;94663.44;;;21.44;54.57
56330;BME280;42236;48.058;10.632;2023-05-23T15:59:01;94664.81;;;21.60;54.86
56330;BME280;42236;48.058;10.632;2023-05-23T16:01:48;94663.03;;;21.77;55.17
56330;BME280;42236;48.058;10.632;2023-05-23T16:04:34;94661.78;;;21.85;54.58
56330;BME280;42236;48.058;10.632;2023-05-23T16:07:20;94665.72;;;21.53;54.20
56330;BME280;42236;48.058;10.632;2023-05-23T16:10:06;94669.69;;;21.48;53.16
56330;BME280;42236;48.058;10.632;2023-05-23T16:12:52;94677.97;;;21.03;53.92
56330;BME280;42236;48.058;10.632;2023-05-23T16:15:38;94689.09;;;20.85;54.39
56330;BME280;42236;48.058;10.632;2023-05-23T16:18:24;94688.28;;;20.88;54.18
56330;BME280;42236;48.058;10.632;2023-05-23T16:21:10;94682.44;;;20.86;53.29
56330;BME280;42236;48.058;10.632;2023-05-23T16:23:56;94683.56;;;20.93;53.04
56330;BME280;42236;48.058;10.632;2023-05-23T16:26:42;94692.34;;;21.15;52.64
56330;BME280;42236;48.058;10.632;2023-05-23T16:29:28;94694.81;;;21.02;52.39
56330;BME280;42236;48.058;10.632;2023-05-23T16:32:13;94683.03;;;21.05;52.23
56330;BME280;42236;48.058;10.632;2023-05-23T16:35:08;94693.53;;;21.14;52.31
56330;BME280;42236;48.058;10.632;2023-05-23T16:37:58;94684.97;;;21.08;52.07
56330;BME280;42236;48.058;10.632;2023-05-23T16:40:44;94694.59;;;20.82;52.82
56330;BME280;42236;48.058;10.632;2023-05-23T16:47:10;94690.28;;;20.32;53.36
56330;BME280;42236;48.058;10.632;2023-05-23T16:49:56;94695.09;;;20.10;53.82
56330;BME280;42236;48.058;10.632;2023-05-23T16:52:42;94696.06;;;19.75;54.27
56330;BME280;42236;48.058;10.632;2023-05-23T16:55:29;94700.75;;;19.71;55.29
56330;BME280;42236;48.058;10.632;2023-05-23T16:58:15;94702.41;;;19.43;55.64
56330;BME280;42236;48.058;10.632;2023-05-23T17:01:01;94712.59;;;19.35;55.95
56330;BME280;42236;48.058;10.632;2023-05-23T17:03:46;94709.09;;;19.24;56.19
56330;BME280;42236;48.058;10.632;2023-05-23T17:06:32;94704.03;;;19.15;56.54
56330;BME280;42236;48.058;10.632;2023-05-23T17:09:26;94706.34;;;19.21;56.61
56330;BME280;42236;48.058;10.632;2023-05-23T17:12:12;94713.38;;;19.25;56.67
56330;BME280;42236;48.058;10.632;2023-05-23T17:15:21;94712.59;;;19.25;56.48
56330;BME280;42236;48.058;10.632;2023-05-23T17:18:07;94710.28;;;19.05;56.93
56330;BME280;42236;48.058;10.632;2023-05-23T17:20:53;94710.72;;;18.86;57.34
56330;BME280;42236;48.058;10.632;2023-05-23T17:23:39;94707.16;;;18.67;57.53
56330;BME280;42236;48.058;10.632;2023-05-23T17:26:26;94714.19;;;18.54;57.44
56330;BME280;42236;48.058;10.632;2023-05-23T17:29:11;94725.09;;;18.36;57.24
56330;BME280;42236;48.058;10.632;2023-05-23T17:31:57;94715.75;;;18.30;57.35
56330;BME280;42236;48.058;10.632;2023-05-23T17:34:43;94725.09;;;18.25;57.66
56330;BME280;42236;48.058;10.632;2023-05-23T17:37:35;94728.19;;;18.20;57.61
56330;BME280;42236;48.058;10.632;2023-05-23T17:40:21;94728.22;;;18.27;57.19
56330;BME280;42236;48.058;10.632;2023-05-23T17:43:07;94733.28;;;18.32;57.14
56330;BME280;42236;48.058;10.632;2023-05-23T17:45:52;94723.13;;;18.19;57.60
56330;BME280;42236;48.058;10.632;2023-05-23T17:48:38;94727.41;;;18.16;57.95
56330;BME280;42236;48.058;10.632;2023-05-23T17:51:25;94721.91;;;18.02;57.52
56330;BME280;42236;48.058;10.632;2023-05-23T17:57:17;94727.25;;;17.69;57.41
56330;BME280;42236;48.058;10.632;2023-05-23T18:00:03;94743.56;;;17.66;57.94
56330;BME280;42236;48.058;10.632;2023-05-23T18:02:53;94732.66;;;17.66;57.70
56330;BME280;42236;48.058;10.632;2023-05-23T18:05:58;94732.25;;;17.60;57.04
56330;BME280;42236;48.058;10.632;2023-05-23T18:08:55;94736.97;;;17.67;57.38